sensor_id;sensor_type;location;lat;lon;timestamp;pressure;altitude;pressure_sealevel;temperature;humidity
76819;BME280;65772;51.096;17.006;2023-12-22T00:01:38;97225.20;;;8.12;57.81
76819;BME280;65772;51.096;17.006;2023-12-22T00:04:09;97219.77;;;8.10;57.60
76819;BME280;65772;51.096;17.006;2023-12-22T00:06:39;97224.02;;;8.11;57.91
76819;BME280;65772;51.096;17.006;2023-12-22T00:09:10;97218.58;;;8.10;57.68
76819;BME280;65772;51.096;17.006;2023-12-22T00:11:40;97221.98;;;8.09;57.42
76819;BME280;65772;51.096;17.006;2023-12-22T00:14:11;97224.88;;;8.09;57.35
76819;BME280;65772;51.096;17.006;2023-12-22T00:16:41;97217.13;;;8.04;57.25
76819;BME280;65772;51.096;17.006;2023-12-22T00:19:12;97213.08;;;8.02;56.95
76819;BME280;65772;51.096;17.006;2023-12-22T00:21:42;97219.52;;;8.02;56.96
76819;BME280;65772;51.096;17.006;2023-12-22T00:24:13;97225.13;;;8.03;56.93
76819;BME280;65772;51.096;17.006;2023-12-22T00:26:44;97227.36;;;8.00;56.58
76819;BME280;65772;51.096;17.006;2023-12-22T00:29:15;97231.61;;;7.99;56.44
76819;BME280;65772;51.096;17.006;2023-12-22T00:31:49;97235.36;;;7.98;56.09
76819;BME280;65772;51.096;17.006;2023-12-22T00:34:21;97236.54;;;7.99;56.15
76819;BME280;65772;51.096;17.006;2023-12-22T00:36:52;97239.10;;;7.98;56.84
76819;BME280;65772;51.096;17.006;2023-12-22T00:39:22;97241.39;;;7.92;57.43
76819;BME280;65772;51.096;17.006;2023-12-22T00:41:52;97241.75;;;7.87;57.53
76819;BME280;65772;51.096;17.006;2023-12-22T00:44:23;97241.26;;;7.85;57.10
76819;BME280;65772;51.096;17.006;2023-12-22T00:46:57;97247.39;;;7.84;57.10
76819;BME280;65772;51.096;17.006;2023-12-22T00:49:27;97273.55;;;7.84;57.02
76819;BME280;65772;51.096;17.006;2023-12-22T00:51:58;97266.49;;;7.75;56.65
76819;BME280;65772;51.096;17.006;2023-12-22T00:54:28;97264.86;;;7.69;56.70
76819;BME280;65772;51.096;17.006;2023-12-22T00:57:00;97263.27;;;7.59;56.80
76819;BME280;65772;51.096;17.006;2023-12-22T00:59:31;97258.69;;;7.55;56.93
76819;BME280;65772;51.096;17.006;2023-12-22T01:02:01;97259.73;;;7.53;57.21
76819;BME280;65772;51.096;17.006;2023-12-22T01:04:32;97267.57;;;7.50;57.18
76819;BME280;65772;51.096;17.006;2023-12-22T01:07:02;97260.81;;;7.47;57.46
76819;BME280;65772;51.096;17.006;2023-12-22T01:09:33;97268.30;;;7.44;57.44
76819;BME280;65772;51.096;17.006;2023-12-22T01:12:04;97268.48;;;7.41;57.52
76819;BME280;65772;51.096;17.006;2023-12-22T01:14:34;97273.28;;;7.37;57.13
76819;BME280;65772;51.096;17.006;2023-12-22T01:17:05;97277.70;;;7.34;57.27
76819;BME280;65772;51.096;17.006;2023-12-22T01:19:36;97285.17;;;7.34;57.00
76819;BME280;65772;51.096;17.006;2023-12-22T01:22:07;97270.06;;;7.36;56.79
76819;BME280;65772;51.096;17.006;2023-12-22T01:24:37;97265.14;;;7.38;56.90
76819;BME280;65772;51.096;17.006;2023-12-22T01:27:12;97284.98;;;7.36;56.18
76819;BME280;65772;51.096;17.006;2023-12-22T01:29:43;97287.38;;;7.35;56.13
76819;BME280;65772;51.096;17.006;2023-12-22T01:32:13;97287.54;;;7.36;55.94
76819;BME280;65772;51.096;17.006;2023-12-22T01:34:44;97286.52;;;7.36;55.84
76819;BME280;65772;51.096;17.006;2023-12-22T01:37:14;97274.31;;;7.33;55.90
76819;BME280;65772;51.096;17.006;2023-12-22T01:39:45;97274.48;;;7.32;55.51
76819;BME280;65772;51.096;17.006;2023-12-22T01:42:15;97285.88;;;7.31;55.25
76819;BME280;65772;51.096;17.006;2023-12-22T01:44:46;97273.00;;;7.28;54.42
76819;BME280;65772;51.096;17.006;2023-12-22T01:47:16;97278.29;;;7.24;54.42
76819;BME280;65772;51.096;17.006;2023-12-22T01:49:47;97265.05;;;7.22;54.42
76819;BME280;65772;51.096;17.006;2023-12-22T01:52:18;97270.01;;;7.20;53.77
76819;BME280;65772;51.096;17.006;2023-12-22T01:54:49;97269.36;;;7.15;53.95
76819;BME280;65772;51.096;17.006;2023-12-22T01:57:20;97267.67;;;7.12;53.74
76819;BME280;65772;51.096;17.006;2023-12-22T01:59:51;97261.79;;;7.09;54.06
76819;BME280;65772;51.096;17.006;2023-12-22T02:02:21;97266.88;;;7.08;53.80
76819;BME280;65772;51.096;17.006;2023-12-22T02:04:53;97273.49;;;7.07;54.17
76819;BME280;65772;51.096;17.006;2023-12-22T02:07:24;97277.23;;;7.07;54.08
76819;BME280;65772;51.096;17.006;2023-12-22T02:09:54;97275.71;;;7.05;53.79
76819;BME280;65772;51.096;17.006;2023-12-22T02:12:25;97274.36;;;7.03;53.92
76819;BME280;65772;51.096;17.006;2023-12-22T02:14:56;97276.57;;;7.01;53.68
76819;BME280;65772;51.096;17.006;2023-12-22T02:17:32;97292.34;;;7.01;53.84
76819;BME280;65772;51.096;17.006;2023-12-22T02:20:04;97316.96;;;6.98;54.17
76819;BME280;65772;51.096;17.006;2023-12-22T02:22:37;97296.97;;;6.95;54.90
76819;BME280;65772;51.096;17.006;2023-12-22T02:25:08;97298.67;;;6.91;56.15
76819;BME280;65772;51.096;17.006;2023-12-22T02:27:44;97298.55;;;6.88;56.77
76819;BME280;65772;51.096;17.006;2023-12-22T02:30:22;97308.03;;;6.87;57.20
76819;BME280;65772;51.096;17.006;2023-12-22T02:32:57;97321.60;;;6.83;57.07
76819;BME280;65772;51.096;17.006;2023-12-22T02:35:30;97329.80;;;6.72;56.69
76819;BME280;65772;51.096;17.006;2023-12-22T02:38:03;97320.86;;;6.61;56.98
76819;BME280;65772;51.096;17.006;2023-12-22T02:40:35;97330.89;;;6.52;57.42
76819;BME280;65772;51.096;17.006;2023-12-22T02:43:06;97348.36;;;6.45;57.37
76819;BME280;65772;51.096;17.006;2023-12-22T02:45:37;97337.05;;;6.33;56.90
76819;BME280;65772;51.096;17.006;2023-12-22T02:48:08;97339.42;;;6.28;56.53
76819;BME280;65772;51.096;17.006;2023-12-22T02:50:39;97340.97;;;6.23;56.96
76819;BME280;65772;51.096;17.006;2023-12-22T02:53:09;97331.99;;;6.18;56.81
76819;BME280;65772;51.096;17.006;2023-12-22T02:55:40;97327.76;;;6.17;57.09
76819;BME280;65772;51.096;17.006;2023-12-22T02:58:10;97320.14;;;6.15;56.90
76819;BME280;65772;51.096;17.006;2023-12-22T03:00:41;97325.08;;;6.12;56.69
76819;BME280;65772;51.096;17.006;2023-12-22T03:03:12;97325.08;;;6.07;56.27
76819;BME280;65772;51.096;17.006;2023-12-22T03:05:43;97321.20;;;6.03;55.94
76819;BME280;65772;51.096;17.006;2023-12-22T03:08:13;97317.30;;;5.99;55.48
76819;BME280;65772;51.096;17.006;2023-12-22T03:10:44;97317.64;;;6.01;55.24
76819;BME280;65772;51.096;17.006;2023-12-22T03:13:15;97318.65;;;5.98;54.38
76819;BME280;65772;51.096;17.006;2023-12-22T03:15:45;97321.70;;;5.97;54.12
76819;BME280;65772;51.096;17.006;2023-12-22T03:18:16;97326.95;;;5.96;53.86
76819;BME280;65772;51.096;17.006;2023-12-22T03:20:47;97337.62;;;5.94;54.20
76819;BME280;65772;51.096;17.006;2023-12-22T03:23:18;97351.84;;;5.94;54.37
76819;BME280;65772;51.096;17.006;2023-12-22T03:25:48;97348.48;;;5.93;54.83
76819;BME280;65772;51.096;17.006;2023-12-22T03:28:19;97358.11;;;5.93;55.54
76819;BME280;65772;51.096;17.006;2023-12-22T03:30:49;97355.42;;;5.93;56.11
76819;BME280;65772;51.096;17.006;2023-12-22T03:33:20;97358.46;;;5.93;56.82
76819;BME280;65772;51.096;17.006;2023-12-22T03:35:51;97363.85;;;5.95;57.38
76819;BME280;65772;51.096;17.006;2023-12-22T03:38:21;97362.85;;;5.92;57.60
76819;BME280;65772;51.096;17.006;2023-12-22T03:40:52;97362.86;;;5.91;57.69
76819;BME280;65772;51.096;17.006;2023-12-22T03:43:23;97368.62;;;5.91;58.08
76819;BME280;65772;51.096;17.006;2023-12-22T03:45:53;97366.56;;;5.88;58.33
76819;BME280;65772;51.096;17.006;2023-12-22T03:48:24;97367.71;;;5.85;57.99
76819;BME280;65772;51.096;17.006;2023-12-22T03:50:55;97367.06;;;5.82;58.36
76819;BME280;65772;51.096;17.006;2023-12-22T03:53:25;97362.14;;;5.79;58.83
76819;BME280;65772;51.096;17.006;2023-12-22T03:55:56;97358.42;;;5.80;58.14
76819;BME280;65772;51.096;17.006;2023-12-22T03:58:26;97358.74;;;5.84;58.26
76819;BME280;65772;51.096;17.006;2023-12-22T04:00:59;97359.25;;;5.85;58.08
76819;BME280;65772;51.096;17.006;2023-12-22T04:03:29;97349.10;;;5.86;57.94
76819;BME280;65772;51.096;17.006;2023-12-22T04:06:02;97349.14;;;5.88;57.91
76819;BME280;65772;51.096;17.006;2023-12-22T04:08:33;97349.82;;;5.90;57.95
76819;BME280;65772;51.096;17.006;2023-12-22T04:11:04;97341.02;;;5.92;57.74
76819;BME280;65772;51.096;17.006;2023-12-22T04:13:34;97348.48;;;5.93;57.63
76819;BME280;65772;51.096;17.006;2023-12-22T04:16:06;97340.49;;;5.95;57.48
76819;BME280;65772;51.096;17.006;2023-12-22T04:18:36;97346.76;;;5.96;57.55
76819;BME280;65772;51.096;17.006;2023-12-22T04:21:07;97337.95;;;5.97;57.08
76819;BME280;65772;51.096;17.006;2023-12-22T04:23:37;97328.48;;;6.00;56.94
76819;BME280;65772;51.096;17.006;2023-12-22T04:26:08;97326.61;;;6.03;56.55
76819;BME280;65772;51.096;17.006;2023-12-22T04:28:38;97334.58;;;6.01;56.49
76819;BME280;65772;51.096;17.006;2023-12-22T04:31:09;97335.77;;;6.02;56.09
76819;BME280;65772;51.096;17.006;2023-12-22T04:33:39;97341.52;;;6.00;55.71
76819;BME280;65772;51.096;17.006;2023-12-22T04:36:10;97339.30;;;6.00;55.99
76819;BME280;65772;51.096;17.006;2023-12-22T04:38:41;97336.44;;;6.01;55.38
76819;BME280;65772;51.096;17.006;2023-12-22T04:41:11;97338.64;;;6.00;55.13
76819;BME280;65772;51.096;17.006;2023-12-22T04:43:42;97347.77;;;5.98;54.85
76819;BME280;65772;51.096;17.006;2023-12-22T04:46:12;97342.36;;;5.99;54.59
76819;BME280;65772;51.096;17.006;2023-12-22T04:48:43;97331.86;;;6.00;55.03
76819;BME280;65772;51.096;17.006;2023-12-22T04:51:13;97325.44;;;6.02;54.72
76819;BME280;65772;51.096;17.006;2023-12-22T04:53:44;97325.44;;;6.01;54.44
76819;BME280;65772;51.096;17.006;2023-12-22T04:56:14;97322.04;;;5.99;54.23
76819;BME280;65772;51.096;17.006;2023-12-22T04:58:45;97328.81;;;5.97;54.16
76819;BME280;65772;51.096;17.006;2023-12-22T05:01:15;97333.38;;;5.95;53.94
76819;BME280;65772;51.096;17.006;2023-12-22T05:03:47;97331.36;;;5.93;53.63
76819;BME280;65772;51.096;17.006;2023-12-22T05:06:17;97329.85;;;5.91;53.57
76819;BME280;65772;51.096;17.006;2023-12-22T05:08:48;97323.25;;;5.89;53.56
76819;BME280;65772;51.096;17.006;2023-12-22T05:11:18;97326.45;;;5.88;53.62
76819;BME280;65772;51.096;17.006;2023-12-22T05:13:49;97327.46;;;5.88;53.92
76819;BME280;65772;51.096;17.006;2023-12-22T05:16:20;97324.77;;;5.88;53.71
76819;BME280;65772;51.096;17.006;2023-12-22T05:18:51;97337.30;;;5.91;53.99
76819;BME280;65772;51.096;17.006;2023-12-22T05:21:21;97338.98;;;5.94;53.83
76819;BME280;65772;51.096;17.006;2023-12-22T05:23:52;97338.13;;;5.95;54.02
76819;BME280;65772;51.096;17.006;2023-12-22T05:26:23;97325.59;;;5.96;53.96
76819;BME280;65772;51.096;17.006;2023-12-22T05:28:54;97323.05;;;5.96;54.02
76819;BME280;65772;51.096;17.006;2023-12-22T05:31:25;97322.71;;;5.96;54.04
76819;BME280;65772;51.096;17.006;2023-12-22T05:33:57;97330.85;;;5.95;54.15
76819;BME280;65772;51.096;17.006;2023-12-22T05:36:27;97325.93;;;5.95;54.20
76819;BME280;65772;51.096;17.006;2023-12-22T05:38:58;97323.55;;;5.98;54.43
76819;BME280;65772;51.096;17.006;2023-12-22T05:41:28;97333.22;;;5.99;54.46
76819;BME280;65772;51.096;17.006;2023-12-22T05:43:59;97339.98;;;5.97;54.46
76819;BME280;65772;51.096;17.006;2023-12-22T05:46:30;97337.63;;;5.98;54.43
76819;BME280;65772;51.096;17.006;2023-12-22T05:49:01;97339.32;;;6.00;54.61
76819;BME280;65772;51.096;17.006;2023-12-22T05:51:37;97341.17;;;6.01;54.51
76819;BME280;65772;51.096;17.006;2023-12-22T05:54:10;97349.13;;;5.99;54.39
76819;BME280;65772;51.096;17.006;2023-12-22T05:56:41;97344.90;;;5.99;54.61
76819;BME280;65772;51.096;17.006;2023-12-22T05:59:12;97356.75;;;5.99;54.70
76819;BME280;65772;51.096;17.006;2023-12-22T06:01:42;97360.98;;;5.98;54.79
76819;BME280;65772;51.096;17.006;2023-12-22T06:04:13;97363.18;;;5.98;54.63
76819;BME280;65772;51.096;17.006;2023-12-22T06:06:43;97362.17;;;5.98;54.68
76819;BME280;65772;51.096;17.006;2023-12-22T06:09:14;97364.20;;;5.96;54.78
76819;BME280;65772;51.096;17.006;2023-12-22T06:11:46;97363.36;;;5.95;54.87
76819;BME280;65772;51.096;17.006;2023-12-22T06:14:17;97370.81;;;5.94;55.12
76819;BME280;65772;51.096;17.006;2023-12-22T06:16:47;97357.42;;;5.94;55.11
76819;BME280;65772;51.096;17.006;2023-12-22T06:19:18;97366.08;;;5.93;55.38
76819;BME280;65772;51.096;17.006;2023-12-22T06:21:50;97362.34;;;5.94;55.50
76819;BME280;65772;51.096;17.006;2023-12-22T06:24:21;97369.98;;;5.93;55.68
76819;BME280;65772;51.096;17.006;2023-12-22T06:26:51;97372.52;;;5.93;55.92
76819;BME280;65772;51.096;17.006;2023-12-22T06:29:22;97375.55;;;5.93;55.96
76819;BME280;65772;51.096;17.006;2023-12-22T06:31:52;97384.36;;;5.92;56.01
76819;BME280;65772;51.096;17.006;2023-12-22T06:34:23;97379.27;;;5.91;56.20
76819;BME280;65772;51.096;17.006;2023-12-22T06:36:55;97386.21;;;5.90;56.44
76819;BME280;65772;51.096;17.006;2023-12-22T06:39:25;97390.95;;;5.90;56.45
76819;BME280;65772;51.096;17.006;2023-12-22T06:41:56;97387.07;;;5.92;56.55
76819;BME280;65772;51.096;17.006;2023-12-22T06:44:26;97398.92;;;5.91;56.70
76819;BME280;65772;51.096;17.006;2023-12-22T06:46:57;97403.66;;;5.91;56.81
76819;BME280;65772;51.096;17.006;2023-12-22T06:49:27;97411.62;;;5.92;57.23
76819;BME280;65772;51.096;17.006;2023-12-22T06:51:58;97410.92;;;5.89;57.27
76819;BME280;65772;51.096;17.006;2023-12-22T06:54:29;97405.30;;;5.85;57.53
76819;BME280;65772;51.096;17.006;2023-12-22T06:56:59;97413.26;;;5.85;57.46
76819;BME280;65772;51.096;17.006;2023-12-22T06:59:30;97413.27;;;5.83;58.08
76819;BME280;65772;51.096;17.006;2023-12-22T07:02:02;97410.05;;;5.78;58.18
76819;BME280;65772;51.096;17.006;2023-12-22T07:05:03;97414.10;;;5.76;58.39
76819;BME280;65772;51.096;17.006;2023-12-22T07:07:56;97412.75;;;5.78;58.31
76819;BME280;65772;51.096;17.006;2023-12-22T07:10:27;97411.56;;;5.76;58.16
76819;BME280;65772;51.096;17.006;2023-12-22T07:12:57;97410.21;;;5.77;58.48
76819;BME280;65772;51.096;17.006;2023-12-22T07:15:28;97410.88;;;5.76;58.52
76819;BME280;65772;51.096;17.006;2023-12-22T07:18:00;97415.27;;;5.73;58.18
76819;BME280;65772;51.096;17.006;2023-12-22T07:20:31;97425.45;;;5.77;60.24
76819;BME280;65772;51.096;17.006;2023-12-22T07:23:01;97434.80;;;5.94;63.85
76819;BME280;65772;51.096;17.006;2023-12-22T07:25:36;97436.84;;;6.13;62.49
76819;BME280;65772;51.096;17.006;2023-12-22T07:28:08;97438.19;;;6.28;61.78
76819;BME280;65772;51.096;17.006;2023-12-22T07:30:38;97428.68;;;6.43;61.87
76819;BME280;65772;51.096;17.006;2023-12-22T07:33:09;97435.26;;;6.56;61.21
76819;BME280;65772;51.096;17.006;2023-12-22T07:35:40;97450.15;;;6.69;60.94
76819;BME280;65772;51.096;17.006;2023-12-22T07:38:13;97457.08;;;6.79;60.26
76819;BME280;65772;51.096;17.006;2023-12-22T07:40:44;97447.23;;;6.81;59.08
76819;BME280;65772;51.096;17.006;2023-12-22T07:43:14;97454.73;;;6.72;58.72
76819;BME280;65772;51.096;17.006;2023-12-22T07:45:45;97439.33;;;6.60;58.61
76819;BME280;65772;51.096;17.006;2023-12-22T07:48:17;97442.73;;;6.48;58.53
76819;BME280;65772;51.096;17.006;2023-12-22T07:50:48;97439.36;;;6.42;58.90
76819;BME280;65772;51.096;17.006;2023-12-22T07:53:20;97430.20;;;6.38;58.91
76819;BME280;65772;51.096;17.006;2023-12-22T07:55:50;97440.73;;;6.35;59.12
76819;BME280;65772;51.096;17.006;2023-12-22T07:58:21;97435.13;;;6.30;59.02
76819;BME280;65772;51.096;17.006;2023-12-22T08:00:52;97433.60;;;6.27;59.26
76819;BME280;65772;51.096;17.006;2023-12-22T08:03:22;97421.42;;;6.22;59.23
76819;BME280;65772;51.096;17.006;2023-12-22T08:05:53;97424.64;;;6.19;59.20
76819;BME280;65772;51.096;17.006;2023-12-22T08:08:24;97435.98;;;6.18;59.13
76819;BME280;65772;51.096;17.006;2023-12-22T08:10:54;97433.44;;;6.16;59.24
76819;BME280;65772;51.096;17.006;2023-12-22T08:13:25;97433.95;;;6.15;58.93
76819;BME280;65772;51.096;17.006;2023-12-22T08:15:56;97438.87;;;6.14;58.82
76819;BME280;65772;51.096;17.006;2023-12-22T08:18:27;97447.17;;;6.14;58.79
76819;BME280;65772;51.096;17.006;2023-12-22T08:20:58;97450.05;;;6.14;58.69
76819;BME280;65772;51.096;17.006;2023-12-22T08:23:35;97464.11;;;6.14;58.46
76819;BME280;65772;51.096;17.006;2023-12-22T08:26:14;97466.47;;;6.09;57.90
76819;BME280;65772;51.096;17.006;2023-12-22T08:28:47;97457.14;;;6.06;57.86
76819;BME280;65772;51.096;17.006;2023-12-22T08:31:17;97451.73;;;6.05;58.04
76819;BME280;65772;51.096;17.006;2023-12-22T08:33:49;97454.77;;;6.05;57.92
76819;BME280;65772;51.096;17.006;2023-12-22T08:36:19;97455.30;;;6.04;57.91
76819;BME280;65772;51.096;17.006;2023-12-22T08:38:50;97447.00;;;6.04;57.70
76819;BME280;65772;51.096;17.006;2023-12-22T08:41:21;97445.64;;;6.08;57.71
76819;BME280;65772;51.096;17.006;2023-12-22T08:43:51;97442.09;;;6.11;57.52
76819;BME280;65772;51.096;17.006;2023-12-22T08:46:22;97446.33;;;6.13;57.76
76819;BME280;65772;51.096;17.006;2023-12-22T08:48:55;97425.84;;;6.14;56.95
76819;BME280;65772;51.096;17.006;2023-12-22T08:51:26;97432.27;;;6.15;57.40
76819;BME280;65772;51.096;17.006;2023-12-22T08:53:56;97438.52;;;6.14;56.99
76819;BME280;65772;51.096;17.006;2023-12-22T08:56:27;97442.44;;;6.13;56.74
76819;BME280;65772;51.096;17.006;2023-12-22T08:58:58;97444.47;;;6.13;56.57
76819;BME280;65772;51.096;17.006;2023-12-22T09:01:29;97466.65;;;6.14;56.75
76819;BME280;65772;51.096;17.006;2023-12-22T09:04:00;97481.38;;;6.15;57.17
76819;BME280;65772;51.096;17.006;2023-12-22T09:06:31;97478.50;;;6.13;57.36
76819;BME280;65772;51.096;17.006;2023-12-22T09:09:01;97463.92;;;6.09;58.05
76819;BME280;65772;51.096;17.006;2023-12-22T09:11:33;97462.23;;;6.02;58.26
76819;BME280;65772;51.096;17.006;2023-12-22T09:14:03;97462.05;;;5.94;58.05
76819;BME280;65772;51.096;17.006;2023-12-22T09:16:35;97466.42;;;5.86;58.26
76819;BME280;65772;51.096;17.006;2023-12-22T09:19:06;97469.30;;;5.80;58.35
76819;BME280;65772;51.096;17.006;2023-12-22T09:21:36;97470.64;;;5.79;58.44
76819;BME280;65772;51.096;17.006;2023-12-22T09:24:07;97474.54;;;5.80;58.47
76819;BME280;65772;51.096;17.006;2023-12-22T09:26:38;97467.94;;;5.80;58.45
76819;BME280;65772;51.096;17.006;2023-12-22T09:29:08;97488.59;;;5.80;58.80
76819;BME280;65772;51.096;17.006;2023-12-22T09:31:39;97470.48;;;5.80;59.02
76819;BME280;65772;51.096;17.006;2023-12-22T09:34:10;97477.08;;;5.80;58.85
76819;BME280;65772;51.096;17.006;2023-12-22T09:36:41;97455.08;;;5.80;59.22
76819;BME280;65772;51.096;17.006;2023-12-22T09:39:12;97453.21;;;5.81;59.35
76819;BME280;65772;51.096;17.006;2023-12-22T09:41:49;97461.16;;;5.83;59.30
76819;BME280;65772;51.096;17.006;2023-12-22T09:44:20;97454.05;;;5.86;59.68
76819;BME280;65772;51.096;17.006;2023-12-22T09:46:51;97453.23;;;5.89;59.68
76819;BME280;65772;51.096;17.006;2023-12-22T09:49:23;97445.63;;;5.95;59.81
76819;BME280;65772;51.096;17.006;2023-12-22T09:51:54;97467.13;;;5.96;59.82
76819;BME280;65772;51.096;17.006;2023-12-22T09:54:26;97467.14;;;5.98;59.97
76819;BME280;65772;51.096;17.006;2023-12-22T09:56:58;97457.48;;;5.98;59.81
76819;BME280;65772;51.096;17.006;2023-12-22T09:59:48;97448.52;;;6.01;60.19
76819;BME280;65772;51.096;17.006;2023-12-22T10:02:22;97451.39;;;6.05;59.96
76819;BME280;65772;51.096;17.006;2023-12-22T10:04:53;97453.77;;;6.07;59.88
76819;BME280;65772;51.096;17.006;2023-12-22T10:07:24;97458.17;;;6.07;59.63
76819;BME280;65772;51.096;17.006;2023-12-22T10:09:57;97452.58;;;6.07;59.41
76819;BME280;65772;51.096;17.006;2023-12-22T10:12:28;97436.32;;;6.07;59.31
76819;BME280;65772;51.096;17.006;2023-12-22T10:15:00;97436.15;;;6.08;59.09
76819;BME280;65772;51.096;17.006;2023-12-22T10:17:32;97437.34;;;6.09;59.18
76819;BME280;65772;51.096;17.006;2023-12-22T10:20:03;97422.11;;;6.12;58.83
76819;BME280;65772;51.096;17.006;2023-12-22T10:22:34;97414.49;;;6.13;58.35
76819;BME280;65772;51.096;17.006;2023-12-22T10:25:05;97430.22;;;6.16;57.96
76819;BME280;65772;51.096;17.006;2023-12-22T10:27:41;97415.16;;;6.20;57.24
76819;BME280;65772;51.096;17.006;2023-12-22T10:30:13;97428.37;;;6.21;57.32
76819;BME280;65772;51.096;17.006;2023-12-22T10:32:45;97441.56;;;6.25;57.21
76819;BME280;65772;51.096;17.006;2023-12-22T10:35:15;97440.55;;;6.29;56.80
76819;BME280;65772;51.096;17.006;2023-12-22T10:37:47;97448.35;;;6.32;56.46
76819;BME280;65772;51.096;17.006;2023-12-22T10:40:18;97447.33;;;6.32;55.67
76819;BME280;65772;51.096;17.006;2023-12-22T10:42:49;97455.63;;;6.32;55.37
76819;BME280;65772;51.096;17.006;2023-12-22T10:45:21;97469.70;;;6.33;55.17
76819;BME280;65772;51.096;17.006;2023-12-22T10:47:52;97479.02;;;6.33;54.50
76819;BME280;65772;51.096;17.006;2023-12-22T10:50:24;97468.17;;;6.34;54.23
76819;BME280;65772;51.096;17.006;2023-12-22T10:52:55;97463.94;;;6.34;53.99
76819;BME280;65772;51.096;17.006;2023-12-22T10:55:25;97461.04;;;6.36;54.22
76819;BME280;65772;51.096;17.006;2023-12-22T10:57:56;97460.20;;;6.42;54.08
76819;BME280;65772;51.096;17.006;2023-12-22T11:00:27;97479.85;;;6.41;54.00
76819;BME280;65772;51.096;17.006;2023-12-22T11:03:03;97463.23;;;6.38;53.56
76819;BME280;65772;51.096;17.006;2023-12-22T11:05:38;97461.90;;;6.31;53.09
76819;BME280;65772;51.096;17.006;2023-12-22T11:08:12;97478.16;;;6.25;53.90
76819;BME280;65772;51.096;17.006;2023-12-22T11:10:44;97480.20;;;6.22;53.67
76819;BME280;65772;51.096;17.006;2023-12-22T11:13:17;97490.17;;;6.17;53.51
76819;BME280;65772;51.096;17.006;2023-12-22T11:15:48;97483.57;;;6.16;53.37
76819;BME280;65772;51.096;17.006;2023-12-22T11:18:20;97488.15;;;6.14;53.79
76819;BME280;65772;51.096;17.006;2023-12-22T11:20:53;97484.60;;;6.12;54.12
76819;BME280;65772;51.096;17.006;2023-12-22T11:23:25;97484.09;;;6.12;54.94
76819;BME280;65772;51.096;17.006;2023-12-22T11:25:56;97492.56;;;6.14;55.20
76819;BME280;65772;51.096;17.006;2023-12-22T11:28:29;97486.27;;;6.15;54.90
76819;BME280;65772;51.096;17.006;2023-12-22T11:31:02;97488.48;;;6.11;54.80
76819;BME280;65772;51.096;17.006;2023-12-22T11:33:36;97486.27;;;6.06;54.49
76819;BME280;65772;51.096;17.006;2023-12-22T11:36:10;97480.52;;;6.06;54.75
76819;BME280;65772;51.096;17.006;2023-12-22T11:38:41;97473.09;;;6.12;54.37
76819;BME280;65772;51.096;17.006;2023-12-22T11:41:18;97487.48;;;6.15;53.84
76819;BME280;65772;51.096;17.006;2023-12-22T11:43:51;97488.15;;;6.20;53.65
76819;BME280;65772;51.096;17.006;2023-12-22T11:46:23;97495.77;;;6.21;52.94
76819;BME280;65772;51.096;17.006;2023-12-22T11:48:54;97488.33;;;6.19;52.28
76819;BME280;65772;51.096;17.006;2023-12-22T11:51:32;97486.61;;;6.16;52.43
76819;BME280;65772;51.096;17.006;2023-12-22T11:54:03;97480.02;;;6.21;52.46
76819;BME280;65772;51.096;17.006;2023-12-22T11:56:35;97484.76;;;6.26;52.21
76819;BME280;65772;51.096;17.006;2023-12-22T11:59:06;97471.55;;;6.35;52.23
76819;BME280;65772;51.096;17.006;2023-12-22T12:01:39;97478.33;;;6.44;51.64
76819;BME280;65772;51.096;17.006;2023-12-22T12:04:10;97472.04;;;6.47;51.07
76819;BME280;65772;51.096;17.006;2023-12-22T12:06:40;97484.07;;;6.49;50.98
76819;BME280;65772;51.096;17.006;2023-12-22T12:09:12;97476.45;;;6.55;50.80
76819;BME280;65772;51.096;17.006;2023-12-22T12:12:11;97480.67;;;6.61;50.10
76819;BME280;65772;51.096;17.006;2023-12-22T12:14:44;97484.58;;;6.62;50.14
76819;BME280;65772;51.096;17.006;2023-12-22T12:17:19;97481.86;;;6.63;49.97
76819;BME280;65772;51.096;17.006;2023-12-22T12:19:50;97487.95;;;6.69;49.96
76819;BME280;65772;51.096;17.006;2023-12-22T12:22:22;97483.20;;;6.71;49.57
76819;BME280;65772;51.096;17.006;2023-12-22T12:24:55;97493.70;;;6.71;49.42
76819;BME280;65772;51.096;17.006;2023-12-22T12:27:26;97489.48;;;6.72;49.57
76819;BME280;65772;51.096;17.006;2023-12-22T12:29:58;97492.52;;;6.74;49.49
76819;BME280;65772;51.096;17.006;2023-12-22T12:32:34;97499.31;;;6.76;49.68
76819;BME280;65772;51.096;17.006;2023-12-22T12:35:05;97495.41;;;6.78;48.94
76819;BME280;65772;51.096;17.006;2023-12-22T12:37:37;97496.42;;;6.77;48.99
76819;BME280;65772;51.096;17.006;2023-12-22T12:40:10;97493.55;;;6.76;48.87
76819;BME280;65772;51.096;17.006;2023-12-22T12:42:41;97488.80;;;6.75;48.42
76819;BME280;65772;51.096;17.006;2023-12-22T12:45:12;97499.65;;;6.73;48.51
76819;BME280;65772;51.096;17.006;2023-12-22T12:47:42;97500.48;;;6.70;48.42
76819;BME280;65772;51.096;17.006;2023-12-22T12:50:13;97498.46;;;6.68;48.25
76819;BME280;65772;51.096;17.006;2023-12-22T12:52:52;97491.02;;;6.63;48.36
76819;BME280;65772;51.096;17.006;2023-12-22T12:55:25;97494.58;;;6.65;48.19
76819;BME280;65772;51.096;17.006;2023-12-22T12:57:57;97496.27;;;6.67;48.24
76819;BME280;65772;51.096;17.006;2023-12-22T13:00:29;97504.73;;;6.68;48.10
76819;BME280;65772;51.096;17.006;2023-12-22T13:03:01;97506.77;;;6.73;48.31
76819;BME280;65772;51.096;17.006;2023-12-22T13:05:33;97507.27;;;6.74;47.99
76819;BME280;65772;51.096;17.006;2023-12-22T13:08:12;97514.23;;;6.75;48.11
76819;BME280;65772;51.096;17.006;2023-12-22T13:10:43;97503.88;;;6.78;47.93
76819;BME280;65772;51.096;17.006;2023-12-22T13:13:14;97512.50;;;6.81;47.78
76819;BME280;65772;51.096;17.006;2023-12-22T13:15:45;97511.49;;;6.83;47.73
76819;BME280;65772;51.096;17.006;2023-12-22T13:18:15;97513.36;;;6.86;47.60
76819;BME280;65772;51.096;17.006;2023-12-22T13:20:46;97516.23;;;6.89;47.73
76819;BME280;65772;51.096;17.006;2023-12-22T13:23:20;97525.88;;;6.91;47.62